sensor_id;sensor_type;location;lat;lon;timestamp;pressure;altitude;pressure_sealevel;temperature;humidity
62712;BME280;48772;55.586;37.730;2023-12-07T00:00:32;101091.13;;;-9.06;100.00
62712;BME280;48772;55.586;37.730;2023-12-07T00:02:58;101152.88;;;-8.78;100.00
62712;BME280;48772;55.586;37.730;2023-12-07T00:05:25;101171.97;;;-8.72;100.00
62712;BME280;48772;55.586;37.730;2023-12-07T00:07:51;101178.06;;;-8.68;100.00
62712;BME280;48772;55.586;37.730;2023-12-07T00:10:17;101174.50;;;-8.73;100.00
62712;BME280;48772;55.586;37.730;2023-12-07T00:12:43;101177.13;;;-8.72;100.00
62712;BME280;48772;55.586;37.730;2023-12-07T00:15:09;101168.47;;;-8.75;100.00
62712;BME280;48772;55.586;37.730;2023-12-07T00:17:35;101153.44;;;-8.91;100.00
62712;BME280;48772;55.586;37.730;2023-12-07T00:20:01;101168.28;;;-8.83;100.00
62712;BME280;48772;55.586;37.730;2023-12-07T00:22:30;101155.19;;;-8.90;100.00
62712;BME280;48772;55.586;37.730;2023-12-07T00:24:55;101135.97;;;-9.04;100.00
62712;BME280;48772;55.586;37.730;2023-12-07T00:27:21;101122.97;;;-9.07;100.00
62712;BME280;48772;55.586;37.730;2023-12-07T00:29:47;101159.41;;;-8.95;100.00
62712;BME280;48772;55.586;37.730;2023-12-07T00:32:13;101139.25;;;-9.11;100.00
62712;BME280;48772;55.586;37.730;2023-12-07T00:34:39;101171.38;;;-8.99;100.00
62712;BME280;48772;55.586;37.730;2023-12-07T00:37:04;101148.63;;;-9.15;100.00
62712;BME280;48772;55.586;37.730;2023-12-07T00:39:30;101182.56;;;-8.98;100.00
62712;BME280;48772;55.586;37.730;2023-12-07T00:41:56;101169.25;;;-9.16;100.00
62712;BME280;48772;55.586;37.730;2023-12-07T00:44:23;101171.06;;;-9.12;100.00
62712;BME280;48772;55.586;37.730;2023-12-07T00:46:48;101192.78;;;-9.03;100.00
62712;BME280;48772;55.586;37.730;2023-12-07T00:49:14;101196.84;;;-9.14;100.00
62712;BME280;48772;55.586;37.730;2023-12-07T00:51:40;101170.81;;;-9.23;100.00
62712;BME280;48772;55.586;37.730;2023-12-07T00:54:06;101171.72;;;-9.22;100.00
62712;BME280;48772;55.586;37.730;2023-12-07T00:56:32;101161.97;;;-9.34;100.00
62712;BME280;48772;55.586;37.730;2023-12-07T00:58:58;101161.03;;;-9.37;100.00
62712;BME280;48772;55.586;37.730;2023-12-07T01:01:24;101202.97;;;-9.10;100.00
62712;BME280;48772;55.586;37.730;2023-12-07T01:03:50;101195.91;;;-9.17;100.00
62712;BME280;48772;55.586;37.730;2023-12-07T01:06:15;101207.16;;;-9.15;100.00
62712;BME280;48772;55.586;37.730;2023-12-07T01:08:42;101175.03;;;-9.28;100.00
62712;BME280;48772;55.586;37.730;2023-12-07T01:11:08;101210.75;;;-9.09;100.00
62712;BME280;48772;55.586;37.730;2023-12-07T01:13:34;101208.34;;;-9.01;100.00
62712;BME280;48772;55.586;37.730;2023-12-07T01:16:01;101208.28;;;-9.04;100.00
62712;BME280;48772;55.586;37.730;2023-12-07T01:18:28;101196.06;;;-9.11;100.00
62712;BME280;48772;55.586;37.730;2023-12-07T01:20:54;101191.72;;;-9.12;100.00
62712;BME280;48772;55.586;37.730;2023-12-07T01:23:20;101202.09;;;-9.11;100.00
62712;BME280;48772;55.586;37.730;2023-12-07T01:25:46;101187.22;;;-9.22;100.00
62712;BME280;48772;55.586;37.730;2023-12-07T01:28:12;101210.59;;;-9.15;100.00
62712;BME280;48772;55.586;37.730;2023-12-07T01:30:38;101198.06;;;-9.35;100.00
62712;BME280;48772;55.586;37.730;2023-12-07T01:33:03;101191.94;;;-9.40;100.00
62712;BME280;48772;55.586;37.730;2023-12-07T01:35:29;101200.50;;;-9.41;100.00
62712;BME280;48772;55.586;37.730;2023-12-07T01:37:55;101195.81;;;-9.57;100.00
62712;BME280;48772;55.586;37.730;2023-12-07T01:40:21;101209.81;;;-9.48;100.00
62712;BME280;48772;55.586;37.730;2023-12-07T01:42:52;101220.19;;;-9.46;100.00
62712;BME280;48772;55.586;37.730;2023-12-07T01:45:18;101185.19;;;-9.69;100.00
62712;BME280;48772;55.586;37.730;2023-12-07T01:47:46;101204.25;;;-9.64;100.00
62712;BME280;48772;55.586;37.730;2023-12-07T01:50:13;101206.00;;;-9.62;100.00
62712;BME280;48772;55.586;37.730;2023-12-07T01:52:45;101235.63;;;-9.48;100.00
62712;BME280;48772;55.586;37.730;2023-12-07T01:55:12;101225.25;;;-9.49;100.00
62712;BME280;48772;55.586;37.730;2023-12-07T01:57:39;101216.25;;;-9.66;100.00
62712;BME280;48772;55.586;37.730;2023-12-07T02:00:06;101214.59;;;-9.63;100.00
62712;BME280;48772;55.586;37.730;2023-12-07T02:02:32;101244.84;;;-9.57;100.00
62712;BME280;48772;55.586;37.730;2023-12-07T02:05:00;101249.25;;;-9.53;100.00
62712;BME280;48772;55.586;37.730;2023-12-07T02:07:27;101190.66;;;-9.91;100.00
62712;BME280;48772;55.586;37.730;2023-12-07T02:09:53;101228.91;;;-9.75;100.00
62712;BME280;48772;55.586;37.730;2023-12-07T02:12:19;101236.13;;;-9.62;100.00
62712;BME280;48772;55.586;37.730;2023-12-07T02:14:46;101224.78;;;-9.67;100.00
62712;BME280;48772;55.586;37.730;2023-12-07T02:17:23;101212.41;;;-9.82;100.00
62712;BME280;48772;55.586;37.730;2023-12-07T02:20:12;101258.69;;;-9.55;100.00
62712;BME280;48772;55.586;37.730;2023-12-07T02:22:43;101196.66;;;-9.92;100.00
62712;BME280;48772;55.586;37.730;2023-12-07T02:25:11;101238.25;;;-9.80;100.00
62712;BME280;48772;55.586;37.730;2023-12-07T02:27:43;101250.50;;;-9.72;100.00
62712;BME280;48772;55.586;37.730;2023-12-07T02:30:12;101222.47;;;-9.91;100.00
62712;BME280;48772;55.586;37.730;2023-12-07T02:32:39;101224.16;;;-9.93;100.00
62712;BME280;48772;55.586;37.730;2023-12-07T02:35:07;101268.66;;;-9.67;100.00
62712;BME280;48772;55.586;37.730;2023-12-07T02:37:52;101266.94;;;-9.68;100.00
62712;BME280;48772;55.586;37.730;2023-12-07T02:40:22;101268.66;;;-9.67;100.00
62712;BME280;48772;55.586;37.730;2023-12-07T02:42:49;101264.19;;;-9.74;100.00
62712;BME280;48772;55.586;37.730;2023-12-07T02:45:15;101228.31;;;-9.96;100.00
62712;BME280;48772;55.586;37.730;2023-12-07T02:47:41;101270.06;;;-9.80;100.00
62712;BME280;48772;55.586;37.730;2023-12-07T02:50:09;101249.06;;;-9.93;100.00
62712;BME280;48772;55.586;37.730;2023-12-07T02:52:35;101271.53;;;-9.89;100.00
62712;BME280;48772;55.586;37.730;2023-12-07T02:55:02;101278.50;;;-9.85;100.00
62712;BME280;48772;55.586;37.730;2023-12-07T02:57:29;101248.81;;;-10.02;100.00
62712;BME280;48772;55.586;37.730;2023-12-07T02:59:56;101214.75;;;-10.23;100.00
62712;BME280;48772;55.586;37.730;2023-12-07T03:02:22;101212.06;;;-10.26;100.00
62712;BME280;48772;55.586;37.730;2023-12-07T03:04:48;101270.53;;;-9.94;100.00
62712;BME280;48772;55.586;37.730;2023-12-07T03:07:14;101279.22;;;-9.91;100.00
62712;BME280;48772;55.586;37.730;2023-12-07T03:09:40;101281.94;;;-9.86;100.00
62712;BME280;48772;55.586;37.730;2023-12-07T03:12:06;101266.03;;;-10.01;100.00
62712;BME280;48772;55.586;37.730;2023-12-07T03:14:32;101242.53;;;-10.13;100.00
62712;BME280;48772;55.586;37.730;2023-12-07T03:16:58;101281.78;;;-9.92;100.00
62712;BME280;48772;55.586;37.730;2023-12-07T03:19:24;101270.53;;;-9.94;100.00
62712;BME280;48772;55.586;37.730;2023-12-07T03:21:51;101302.75;;;-9.80;100.00
62712;BME280;48772;55.586;37.730;2023-12-07T03:24:16;101250.28;;;-10.13;100.00
62712;BME280;48772;55.586;37.730;2023-12-07T03:26:42;101280.56;;;-10.06;100.00
62712;BME280;48772;55.586;37.730;2023-12-07T03:29:08;101226.31;;;-10.39;100.00
62712;BME280;48772;55.586;37.730;2023-12-07T03:31:34;101295.34;;;-9.99;100.00
62712;BME280;48772;55.586;37.730;2023-12-07T03:34:00;101286.56;;;-10.04;100.00
62712;BME280;48772;55.586;37.730;2023-12-07T03:36:27;101305.72;;;-9.96;100.00
62712;BME280;48772;55.586;37.730;2023-12-07T03:38:53;101295.34;;;-9.99;100.00
62712;BME280;48772;55.586;37.730;2023-12-07T03:41:19;101258.66;;;-10.20;100.00
62712;BME280;48772;55.586;37.730;2023-12-07T03:43:45;101285.63;;;-10.09;100.00
62712;BME280;48772;55.586;37.730;2023-12-07T03:46:11;101310.06;;;-9.95;100.00
62712;BME280;48772;55.586;37.730;2023-12-07T03:48:37;101310.81;;;-9.99;100.00
62712;BME280;48772;55.586;37.730;2023-12-07T03:51:03;101297.78;;;-10.04;100.00
62712;BME280;48772;55.586;37.730;2023-12-07T03:53:29;101293.44;;;-10.06;100.00
62712;BME280;48772;55.586;37.730;2023-12-07T03:55:55;101287.22;;;-10.13;100.00
62712;BME280;48772;55.586;37.730;2023-12-07T03:58:21;101287.03;;;-10.20;100.00
62712;BME280;48772;55.586;37.730;2023-12-07T04:00:47;101308.84;;;-10.09;100.00
62712;BME280;48772;55.586;37.730;2023-12-07T04:03:13;101307.19;;;-10.06;100.00
62712;BME280;48772;55.586;37.730;2023-12-07T04:05:39;101315.88;;;-10.02;100.00
62712;BME280;48772;55.586;37.730;2023-12-07T04:08:05;101314.19;;;-10.00;100.00
62712;BME280;48772;55.586;37.730;2023-12-07T04:10:31;101324.53;;;-10.00;100.00
62712;BME280;48772;55.586;37.730;2023-12-07T04:12:57;101320.88;;;-10.08;100.00
62712;BME280;48772;55.586;37.730;2023-12-07T04:15:23;101330.38;;;-10.07;100.00
62712;BME280;48772;55.586;37.730;2023-12-07T04:17:50;101325.94;;;-10.11;100.00
62712;BME280;48772;55.586;37.730;2023-12-07T04:20:16;101315.63;;;-10.11;100.00
62712;BME280;48772;55.586;37.730;2023-12-07T04:22:44;101334.63;;;-10.09;100.00
62712;BME280;48772;55.586;37.730;2023-12-07T04:25:11;101332.00;;;-10.11;100.00
62712;BME280;48772;55.586;37.730;2023-12-07T04:27:37;101338.09;;;-10.07;100.00
62712;BME280;48772;55.586;37.730;2023-12-07T04:30:03;101327.53;;;-10.16;100.00
62712;BME280;48772;55.586;37.730;2023-12-07T04:32:31;101344.84;;;-10.12;100.00
62712;BME280;48772;55.586;37.730;2023-12-07T04:34:57;101337.84;;;-10.16;100.00
62712;BME280;48772;55.586;37.730;2023-12-07T04:37:23;101343.09;;;-10.13;100.00
62712;BME280;48772;55.586;37.730;2023-12-07T04:39:49;101350.00;;;-10.12;100.00
62712;BME280;48772;55.586;37.730;2023-12-07T04:42:15;101333.59;;;-10.16;100.00
62712;BME280;48772;55.586;37.730;2023-12-07T04:44:41;101318.47;;;-10.32;100.00
62712;BME280;48772;55.586;37.730;2023-12-07T04:47:07;101311.34;;;-10.40;100.00
62712;BME280;48772;55.586;37.730;2023-12-07T04:49:32;101308.22;;;-10.30;100.00
62712;BME280;48772;55.586;37.730;2023-12-07T04:51:58;101359.56;;;-10.08;100.00
62712;BME280;48772;55.586;37.730;2023-12-07T04:54:24;101354.31;;;-10.11;100.00
62712;BME280;48772;55.586;37.730;2023-12-07T04:56:52;101237.25;;;-10.77;100.00
62712;BME280;48772;55.586;37.730;2023-12-07T04:59:18;101339.59;;;-10.15;100.00
62712;BME280;48772;55.586;37.730;2023-12-07T05:01:43;101350.00;;;-10.12;100.00
62712;BME280;48772;55.586;37.730;2023-12-07T05:04:09;101350.78;;;-10.15;100.00
62712;BME280;48772;55.586;37.730;2023-12-07T05:06:35;101366.34;;;-10.12;100.00
62712;BME280;48772;55.586;37.730;2023-12-07T05:09:02;101336.63;;;-10.29;100.00
62712;BME280;48772;55.586;37.730;2023-12-07T05:11:28;101351.19;;;-10.29;100.00
62712;BME280;48772;55.586;37.730;2023-12-07T05:13:54;101370.19;;;-10.27;100.00
62712;BME280;48772;55.586;37.730;2023-12-07T05:16:20;101310.56;;;-10.66;100.00
62712;BME280;48772;55.586;37.730;2023-12-07T05:18:46;101301.78;;;-10.72;100.00
62712;BME280;48772;55.586;37.730;2023-12-07T05:21:13;101365.47;;;-10.40;100.00
62712;BME280;48772;55.586;37.730;2023-12-07T05:23:39;101369.03;;;-10.37;100.00
62712;BME280;48772;55.586;37.730;2023-12-07T05:26:05;101351.44;;;-10.50;100.00
62712;BME280;48772;55.586;37.730;2023-12-07T05:28:33;101343.59;;;-10.54;100.00
62712;BME280;48772;55.586;37.730;2023-12-07T05:31:01;101389.81;;;-10.32;100.00
62712;BME280;48772;55.586;37.730;2023-12-07T05:33:27;101382.50;;;-10.45;100.00
62712;BME280;48772;55.586;37.730;2023-12-07T05:35:53;101349.13;;;-10.69;100.00
62712;BME280;48772;55.586;37.730;2023-12-07T05:38:18;101405.72;;;-10.45;100.00
62712;BME280;48772;55.586;37.730;2023-12-07T05:40:44;101399.50;;;-10.52;100.00
62712;BME280;48772;55.586;37.730;2023-12-07T05:43:10;101412.34;;;-10.53;100.00
62712;BME280;48772;55.586;37.730;2023-12-07T05:45:36;101340.75;;;-10.89;100.00
62712;BME280;48772;55.586;37.730;2023-12-07T05:48:02;101396.19;;;-10.74;100.00
62712;BME280;48772;55.586;37.730;2023-12-07T05:50:28;101387.97;;;-10.90;100.00
62712;BME280;48772;55.586;37.730;2023-12-07T05:52:54;101422.94;;;-10.71;100.00
62712;BME280;48772;55.586;37.730;2023-12-07T05:55:21;101381.88;;;-10.92;100.00
62712;BME280;48772;55.586;37.730;2023-12-07T05:57:46;101419.38;;;-10.74;100.00
62712;BME280;48772;55.586;37.730;2023-12-07T06:00:13;101416.09;;;-10.69;100.00
62712;BME280;48772;55.586;37.730;2023-12-07T06:02:39;101425.53;;;-10.69;100.00
62712;BME280;48772;55.586;37.730;2023-12-07T06:05:06;101426.56;;;-10.64;100.00
62712;BME280;48772;55.586;37.730;2023-12-07T06:07:32;101422.44;;;-10.59;100.00
62712;BME280;48772;55.586;37.730;2023-12-07T06:09:58;101423.16;;;-10.63;100.00
62712;BME280;48772;55.586;37.730;2023-12-07T06:12:24;101426.69;;;-10.61;100.00
62712;BME280;48772;55.586;37.730;2023-12-07T06:14:50;101429.97;;;-10.65;100.00
62712;BME280;48772;55.586;37.730;2023-12-07T06:17:16;101401.91;;;-10.83;100.00
62712;BME280;48772;55.586;37.730;2023-12-07T06:19:42;101437.03;;;-10.60;100.00
62712;BME280;48772;55.586;37.730;2023-12-07T06:22:08;101388.16;;;-10.83;100.00
62712;BME280;48772;55.586;37.730;2023-12-07T06:24:34;101442.41;;;-10.52;100.00
62712;BME280;48772;55.586;37.730;2023-12-07T06:27:02;101406.88;;;-10.62;100.00
62712;BME280;48772;55.586;37.730;2023-12-07T06:29:28;101408.63;;;-10.61;100.00
62712;BME280;48772;55.586;37.730;2023-12-07T06:31:55;101429.63;;;-10.49;100.00
62712;BME280;48772;55.586;37.730;2023-12-07T06:34:21;101428.06;;;-10.44;100.00
62712;BME280;48772;55.586;37.730;2023-12-07T06:36:47;101418.31;;;-10.54;100.00
62712;BME280;48772;55.586;37.730;2023-12-07T06:39:13;101377.63;;;-10.64;100.00
62712;BME280;48772;55.586;37.730;2023-12-07T06:41:40;101413.59;;;-10.41;100.00
62712;BME280;48772;55.586;37.730;2023-12-07T06:44:07;101420.97;;;-10.25;100.00
62712;BME280;48772;55.586;37.730;2023-12-07T06:46:34;101403.56;;;-10.32;100.00
62712;BME280;48772;55.586;37.730;2023-12-07T06:49:00;101387.94;;;-10.36;100.00
62712;BME280;48772;55.586;37.730;2023-12-07T06:51:25;101416.16;;;-10.13;100.00
62712;BME280;48772;55.586;37.730;2023-12-07T06:53:52;101407.53;;;-10.15;100.00
62712;BME280;48772;55.586;37.730;2023-12-07T06:56:18;101397.25;;;-10.13;100.00
62712;BME280;48772;55.586;37.730;2023-12-07T06:58:44;101406.09;;;-10.04;100.00
62712;BME280;48772;55.586;37.730;2023-12-07T07:01:10;101429.06;;;-9.83;100.00
62712;BME280;48772;55.586;37.730;2023-12-07T07:03:38;101390.13;;;-9.91;100.00
62712;BME280;48772;55.586;37.730;2023-12-07T07:06:04;101363.41;;;-9.94;100.00
62712;BME280;48772;55.586;37.730;2023-12-07T07:08:30;101398.72;;;-9.31;100.00
62712;BME280;48772;55.586;37.730;2023-12-07T07:10:56;101417.03;;;-8.56;100.00
62712;BME280;48772;55.586;37.730;2023-12-07T07:13:22;101415.84;;;-7.96;100.00
62712;BME280;48772;55.586;37.730;2023-12-07T07:15:49;101402.84;;;-7.57;100.00
62712;BME280;48772;55.586;37.730;2023-12-07T07:18:15;101398.41;;;-7.18;100.00
62712;BME280;48772;55.586;37.730;2023-12-07T07:20:41;101403.78;;;-6.58;100.00
62712;BME280;48772;55.586;37.730;2023-12-07T07:23:07;101404.28;;;-6.27;100.00
62712;BME280;48772;55.586;37.730;2023-12-07T07:25:34;101391.44;;;-6.21;100.00
62712;BME280;48772;55.586;37.730;2023-12-07T07:28:00;101383.13;;;-5.96;100.00
62712;BME280;48772;55.586;37.730;2023-12-07T07:30:26;101400.13;;;-5.52;100.00
62712;BME280;48772;55.586;37.730;2023-12-07T07:32:52;101402.97;;;-5.28;100.00
62712;BME280;48772;55.586;37.730;2023-12-07T07:35:18;101408.31;;;-5.19;100.00
62712;BME280;48772;55.586;37.730;2023-12-07T07:37:44;101405.28;;;-4.76;100.00
62712;BME280;48772;55.586;37.730;2023-12-07T07:40:10;101374.94;;;-4.74;100.00
62712;BME280;48772;55.586;37.730;2023-12-07T07:42:40;101395.28;;;-4.22;100.00
62712;BME280;48772;55.586;37.730;2023-12-07T07:45:07;101401.38;;;-4.23;100.00
62712;BME280;48772;55.586;37.730;2023-12-07T07:47:33;101404.88;;;-4.21;100.00
62712;BME280;48772;55.586;37.730;2023-12-07T07:49:59;101411.38;;;-4.72;100.00
62712;BME280;48772;55.586;37.730;2023-12-07T07:52:32;101401.53;;;-4.00;100.00
62712;BME280;48772;55.586;37.730;2023-12-07T07:55:00;101405.19;;;-3.68;100.00
62712;BME280;48772;55.586;37.730;2023-12-07T07:57:29;101366.09;;;-3.61;100.00
62712;BME280;48772;55.586;37.730;2023-12-07T07:59:56;101411.91;;;-4.03;100.00
62712;BME280;48772;55.586;37.730;2023-12-07T08:02:23;101409.47;;;-3.75;100.00
62712;BME280;48772;55.586;37.730;2023-12-07T08:04:49;101367.84;;;-3.63;100.00
62712;BME280;48772;55.586;37.730;2023-12-07T08:07:17;101426.22;;;-3.21;100.00
62712;BME280;48772;55.586;37.730;2023-12-07T08:09:43;101386.25;;;-3.08;100.00
62712;BME280;48772;55.586;37.730;2023-12-07T08:12:09;101405.44;;;-2.78;100.00
62712;BME280;48772;55.586;37.730;2023-12-07T08:14:36;101418.56;;;-2.34;100.00
62712;BME280;48772;55.586;37.730;2023-12-07T08:17:03;101351.50;;;-2.37;100.00
62712;BME280;48772;55.586;37.730;2023-12-07T08:19:30;101403.66;;;-1.74;100.00
62712;BME280;48772;55.586;37.730;2023-12-07T08:21:56;101399.25;;;-1.63;100.00
62712;BME280;48772;55.586;37.730;2023-12-07T08:24:22;101399.22;;;-1.61;100.00
62712;BME280;48772;55.586;37.730;2023-12-07T08:26:48;101354.81;;;-1.75;100.00
62712;BME280;48772;55.586;37.730;2023-12-07T08:29:14;101411.41;;;-1.45;100.00
62712;BME280;48772;55.586;37.730;2023-12-07T08:31:40;101413.28;;;-1.89;100.00
62712;BME280;48772;55.586;37.730;2023-12-07T08:34:06;101407.19;;;-2.00;100.00
62712;BME280;48772;55.586;37.730;2023-12-07T08:36:32;101357.53;;;-2.05;100.00
62712;BME280;48772;55.586;37.730;2023-12-07T08:38:58;101398.25;;;-1.26;100.00
62712;BME280;48772;55.586;37.730;2023-12-07T08:41:24;101407.97;;;-1.64;100.00
62712;BME280;48772;55.586;37.730;2023-12-07T08:43:50;101360.03;;;-1.66;100.00
62712;BME280;48772;55.586;37.730;2023-12-07T08:46:15;101412.06;;;-1.04;100.00
62712;BME280;48772;55.586;37.730;2023-12-07T08:48:41;101400.81;;;-1.21;100.00
62712;BME280;48772;55.586;37.730;2023-12-07T08:51:08;101394.63;;;-1.05;100.00
62712;BME280;48772;55.586;37.730;2023-12-07T08:53:35;101403.88;;;-0.53;100.00
62712;BME280;48772;55.586;37.730;2023-12-07T08:56:01;101363.81;;;-0.67;100.00
62712;BME280;48772;55.586;37.730;2023-12-07T08:58:27;101375.88;;;-0.47;100.00
62712;BME280;48772;55.586;37.730;2023-12-07T09:00:53;101374.88;;;-0.32;100.00
62712;BME280;48772;55.586;37.730;2023-12-07T09:03:19;101370.72;;;-0.54;100.00
62712;BME280;48772;55.586;37.730;2023-12-07T09:05:45;101399.75;;;-0.86;100.00
62712;BME280;48772;55.586;37.730;2023-12-07T09:08:11;101389.84;;;-0.46;100.00
62712;BME280;48772;55.586;37.730;2023-12-07T09:10:37;101379.25;;;-0.34;100.00
62712;BME280;48772;55.586;37.730;2023-12-07T09:13:03;101385.16;;;-0.11;100.00
62712;BME280;48772;55.586;37.730;2023-12-07T09:15:29;101379.66;;;0.15;100.00
62712;BME280;48772;55.586;37.730;2023-12-07T09:17:55;101297.16;;;-0.35;100.00
62712;BME280;48772;55.586;37.730;2023-12-07T09:20:20;101359.06;;;-0.23;99.22
62712;BME280;48772;55.586;37.730;2023-12-07T09:22:47;101359.66;;;0.04;98.42
62712;BME280;48772;55.586;37.730;2023-12-07T09:25:15;101374.19;;;0.34;96.40
62712;BME280;48772;55.586;37.730;2023-12-07T09:27:42;101380.97;;;0.53;94.90
62712;BME280;48772;55.586;37.730;2023-12-07T09:30:09;101389.44;;;0.75;92.43
62712;BME280;48772;55.586;37.730;2023-12-07T09:32:39;101378.16;;;0.68;89.71
62712;BME280;48772;55.586;37.730;2023-12-07T09:35:06;101359.16;;;0.48;90.33
62712;BME280;48772;55.586;37.730;2023-12-07T09:37:33;101392.19;;;0.64;88.20
62712;BME280;48772;55.586;37.730;2023-12-07T09:40:00;101388.78;;;0.59;87.52
62712;BME280;48772;55.586;37.730;2023-12-07T09:42:30;101375.13;;;0.30;86.26
62712;BME280;48772;55.586;37.730;2023-12-07T09:44:56;101368.94;;;0.37;87.14
62712;BME280;48772;55.586;37.730;2023-12-07T09:47:22;101385.69;;;0.23;89.18
62712;BME280;48772;55.586;37.730;2023-12-07T09:49:48;101359.06;;;-0.25;91.58
62712;BME280;48772;55.586;37.730;2023-12-07T09:52:14;101380.03;;;-0.25;91.88
62712;BME280;48772;55.586;37.730;2023-12-07T09:54:41;101352.75;;;-1.04;93.97
62712;BME280;48772;55.586;37.730;2023-12-07T09:57:08;101357.47;;;-1.79;100.00
62712;BME280;48772;55.586;37.730;2023-12-07T09:59:37;101388.06;;;-2.37;100.00
62712;BME280;48772;55.586;37.730;2023-12-07T10:02:04;101401.06;;;-3.01;100.00
62712;BME280;48772;55.586;37.730;2023-12-07T10:04:30;101332.94;;;-3.96;100.00
62712;BME280;48772;55.586;37.730;2023-12-07T10:06:57;101403.31;;;-3.87;100.00
62712;BME280;48772;55.586;37.730;2023-12-07T10:09:23;101392.47;;;-4.50;100.00
62712;BME280;48772;55.586;37.730;2023-12-07T10:11:50;101379.00;;;-5.03;100.00
62712;BME280;48772;55.586;37.730;2023-12-07T10:14:27;101352.66;;;-5.36;100.00
62712;BME280;48772;55.586;37.730;2023-12-07T10:16:54;101395.91;;;-5.41;100.00
62712;BME280;48772;55.586;37.730;2023-12-07T10:19:23;101361.09;;;-5.55;100.00
62712;BME280;48772;55.586;37.730;2023-12-07T10:21:51;101410.72;;;-5.35;100.00
62712;BME280;48772;55.586;37.730;2023-12-07T10:24:19;101407.22;;;-5.37;100.00
62712;BME280;48772;55.586;37.730;2023-12-07T10:26:50;101412.16;;;-5.57;100.00
62712;BME280;48772;55.586;37.730;2023-12-07T10:29:35;101352.00;;;-5.93;100.00
62712;BME280;48772;55.586;37.730;2023-12-07T10:32:06;101409.91;;;-4.42;100.00
62712;BME280;48772;55.586;37.730;2023-12-07T10:34:42;101404.47;;;-3.31;100.00
62712;BME280;48772;55.586;37.730;2023-12-07T10:37:36;101374.16;;;-2.54;100.00
62712;BME280;48772;55.586;37.730;2023-12-07T10:40:04;101375.00;;;-2.35;100.00
62712;BME280;48772;55.586;37.730;2023-12-07T10:42:33;101399.38;;;-2.44;100.00
62712;BME280;48772;55.586;37.730;2023-12-07T10:45:06;101376.75;;;-2.63;100.00
62712;BME280;48772;55.586;37.730;2023-12-07T10:47:38;101389.78;;;-2.66;100.00
62712;BME280;48772;55.586;37.730;2023-12-07T10:50:08;101401.94;;;-3.01;100.00
62712;BME280;48772;55.586;37.730;2023-12-07T10:52:44;101386.91;;;-3.71;100.00
62712;BME280;48772;55.586;37.730;2023-12-07T10:55:20;101406.66;;;-4.14;100.00
62712;BME280;48772;55.586;37.730;2023-12-07T10:57:47;101388.78;;;-4.76;100.00
62712;BME280;48772;55.586;37.730;2023-12-07T11:00:13;101361.44;;;-5.23;100.00
62712;BME280;48772;55.586;37.730;2023-12-07T11:02:41;101389.00;;;-5.42;100.00
62712;BME280;48772;55.586;37.730;2023-12-07T11:05:09;101362.38;;;-5.15;100.00
62712;BME280;48772;55.586;37.730;2023-12-07T11:07:47;101398.81;;;-4.17;100.00
62712;BME280;48772;55.586;37.730;2023-12-07T11:10:27;101409.34;;;-3.94;100.00
62712;BME280;48772;55.586;37.730;2023-12-07T11:13:08;101395.38;;;-4.07;100.00
62712;BME280;48772;55.586;37.730;2023-12-07T11:15:35;101420.47;;;-4.18;100.00
62712;BME280;48772;55.586;37.730;2023-12-07T11:18:02;101425.56;;;-4.37;100.00
62712;BME280;48772;55.586;37.730;2023-12-07T11:20:39;101338.91;;;-5.26;100.00
62712;BME280;48772;55.586;37.730;2023-12-07T11:23:07;101425.91;;;-4.94;100.00
62712;BME280;48772;55.586;37.730;2023-12-07T11:25:37;101399.66;;;-5.16;100.00
62712;BME280;48772;55.586;37.730;2023-12-07T11:28:12;101415.34;;;-5.09;100.00
62712;BME280;48772;55.586;37.730;2023-12-07T11:30:42;101356.63;;;-5.66;100.00
62712;BME280;48772;55.586;37.730;2023-12-07T11:33:09;101428.78;;;-5.44;100.00
62712;BME280;48772;55.586;37.730;2023-12-07T11:38:27;101378.03;;;-6.46;100.00
62712;BME280;48772;55.586;37.730;2023-12-07T11:40:54;101429.38;;;-6.29;100.00
62712;BME280;48772;55.586;37.730;2023-12-07T11:46:07;101436.47;;;-6.69;100.00
62712;BME280;48772;55.586;37.730;2023-12-07T11:48:33;101414.44;;;-6.94;100.00
62712;BME280;48772;55.586;37.730;2023-12-07T11:53:31;101425.22;;;-7.18;100.00
62712;BME280;48772;55.586;37.730;2023-12-07T11:55:59;101397.91;;;-7.45;100.00
62712;BME280;48772;55.586;37.730;2023-12-07T11:58:27;101404.66;;;-7.53;100.00
62712;BME280;48772;55.586;37.730;2023-12-07T12:00:54;101402.06;;;-7.53;100.00
62712;BME280;48772;55.586;37.730;2023-12-07T12:03:24;101432.53;;;-7.40;100.00
62712;BME280;48772;55.586;37.730;2023-12-07T12:05:50;101432.38;;;-7.49;100.00
62712;BME280;48772;55.586;37.730;2023-12-07T12:08:17;101414.94;;;-7.56;100.00
62712;BME280;48772;55.586;37.730;2023-12-07T12:10:44;101416.50;;;-7.64;100.00
62712;BME280;48772;55.586;37.730;2023-12-07T12:13:11;101420.63;;;-7.74;100.00
62712;BME280;48772;55.586;37.730;2023-12-07T12:15:38;101418.00;;;-7.75;100.00
62712;BME280;48772;55.586;37.730;2023-12-07T12:18:06;101431.94;;;-7.69;100.00
62712;BME280;48772;55.586;37.730;2023-12-07T12:20:32;101375.81;;;-8.11;100.00
62712;BME280;48772;55.586;37.730;2023-12-07T12:22:59;101431.66;;;-7.82;100.00
62712;BME280;48772;55.586;37.730;2023-12-07T12:25:29;101414.09;;;-7.95;100.00
62712;BME280;48772;55.586;37.730;2023-12-07T12:28:04;101423.47;;;-8.02;100.00
62712;BME280;48772;55.586;37.730;2023-12-07T12:30:32;101415.72;;;-8.00;100.00
62712;BME280;48772;55.586;37.730;2023-12-07T12:32:59;101391.00;;;-8.28;100.00
62712;BME280;48772;55.586;37.730;2023-12-07T12:35:28;101357.53;;;-8.57;100.00